createdAt,value
2023-03-22T14:11:11.063Z,21.47
2023-03-22T14:59:12.843Z,20.43
2023-03-22T15:11:13.353Z,20.97
2023-03-22T15:23:13.792Z,20.09
2023-03-22T15:35:14.302Z,19.16
2023-03-22T15:47:14.687Z,19.05
2023-03-22T15:59:15.107Z,18.82
2023-03-22T16:11:15.572Z,18.31
2023-03-22T16:23:16.072Z,17.93
2023-03-22T16:35:16.511Z,17.56
2023-03-22T16:47:16.938Z,16.88
2023-03-22T16:59:17.393Z,16.34
2023-03-22T17:11:17.898Z,15.48
2023-03-22T17:23:18.347Z,14.46
2023-03-22T17:35:18.751Z,14.55
2023-03-22T17:47:37.494Z,14.66
2023-03-22T17:59:19.650Z,13.83
2023-03-22T18:11:20.114Z,13.34
2023-03-22T18:23:20.615Z,12.62
2023-03-22T18:35:21.031Z,12.07
2023-03-22T18:47:21.452Z,12.05
2023-03-22T18:59:21.992Z,11.45
2023-03-22T19:11:22.407Z,11.19
2023-03-22T19:23:22.826Z,11.03
2023-03-22T19:35:23.288Z,10.62
2023-03-22T19:47:23.784Z,10.55
2023-03-22T19:59:25.794Z,10.16
2023-03-22T20:11:38.066Z,11.12
2023-03-22T20:23:25.152Z,12.67
2023-03-22T20:35:25.574Z,12.60
2023-03-22T20:47:26.007Z,11.58
2023-03-22T20:59:26.610Z,11.16
2023-03-22T21:11:29.225Z,10.87
2023-03-22T21:23:27.380Z,10.55
2023-03-22T21:35:27.847Z,9.80
2023-03-22T21:47:28.281Z,9.43
2023-03-22T21:59:28.754Z,9.34
2023-03-22T22:11:29.216Z,10.05
2023-03-22T22:23:29.662Z,9.46
2023-03-22T22:35:30.161Z,9.44
2023-03-22T22:47:30.579Z,9.22
2023-03-22T22:59:31.028Z,8.81
2023-03-22T23:11:31.511Z,8.51
2023-03-22T23:23:31.900Z,8.28
2023-03-22T23:35:32.380Z,8.04
2023-03-22T23:47:32.808Z,8.13
2023-03-22T23:59:35.514Z,8.07
